Parma, ID (83660)

3:38 AM MST on January 21, 2017 (GMT -0700)
Trail Ridge Subdivision | | Change Station

Elev 2247 ft 43.79 °N, 116.95 °W | Updated 26 seconds ago

Overcast
Overcast
34.2 °F
Feels Like 34 °F
N
1.1
Wind Variable Wind from West

Today
High -- | Low -- °F
--% Chance of Precip.
Yesterday
High -- | Low -- °F
Precip. -- in
Pressure 29.39 in
Visibility 8.0 miles
Clouds Overcast 1600 ft
Windchill 34 °F
Dew Point 32 °F
Humidity 92%
Rainfall 0.00 in
Snow Depth Not available.
8:14 AM 5:44 PM
Last Quarter, 36% visible
METAR KONO 210953Z AUTO 33003KT 8SM OVC016 01/00 A2935 RMK AO2 RAE0854 SLP953 P0001 T00110000
Pressure 29.39 in
Visibility 8.0 miles
Clouds Overcast 1600 ft
Windchill 34 °F
Dew Point 32 °F
Humidity 92%
Rainfall 0.00 in
Snow Depth Not available.
8:14 AM 5:44 PM
Last Quarter, 36% visible
METAR KONO 210953Z AUTO 33003KT 8SM OVC016 01/00 A2935 RMK AO2 RAE0854 SLP953 P0001 T00110000

Get Your Daily Forecast Email!

Thanks for signing up!

Be on the lookout for a verification email in your inbox.

You'll start receiving the daily forecast at 8 AM.

×

10-Day Weather Forecast

Almanac

Astronomy

Jan. 21, 2017 Rise Set
Actual Time
Civil Twilight
Nautical Twilight
Astronomical Twilight
Moon
Length of Visible Light
Length of Day
Tomorrow will be .
, % of the Moon is Illuminated

Today's Extremes

State Highs State Lows

Community

WunderPhotos

Upload Photos

1,962,540 photos uploaded!

WunderBlog® & News

Nearby

Air Quality

  Air Quality AQ Index Pollutant
Not available.

Snow Depth

Station Depth Elevation

Earthquake Activity

City Distance Mag. Time & Date
Minimum magnitude displayed is 2.5.

Coastal Water Temperatures

Place Temperature

Stations

Nearby Weather Stations

Station Location Temp. Windchill Dew Point Humidity Wind Precip. Elev Updated Type
                   

Watches & Warnings

There are currently no watches in effect.